Time;durP1;ratioP1;P1;durP2;ratioP2;P2;SDS_P1;SDS_P2;PMS_P1;PMS_P2;Temp;Humidity;BMP_temperature;BMP_pressure;BME280_temperature;BME280_humidity;BME280_pressure;Samples;Min_cycle;Max_cycle;Signal;HPM_P1;HPM_P2
2023/09/22 00:01:05;;;;;;;4.50;2.95;;;;;;;19.91;57.63;99466.66;5037686;28;20202;-76
2023/09/22 00:03:33;;;;;;;4.45;2.70;;;;;;;19.87;57.75;99463.38;5032656;28;20629;-73
2023/09/22 00:06:02;;;;;;;5.18;2.90;;;;;;;19.84;57.75;99458.31;5035433;28;20202;-76
2023/09/22 00:08:32;;;;;;;4.07;2.42;;;;;;;19.81;57.65;99458.53;5034002;28;20221;-77
2023/09/22 00:11:00;;;;;;;4.53;2.35;;;;;;;19.78;57.96;99461.31;5036125;28;20202;-76
2023/09/22 00:13:28;;;;;;;3.92;2.53;;;;;;;19.75;58.03;99456.25;5034337;28;20685;-75
2023/09/22 00:15:58;;;;;;;5.25;2.45;;;;;;;19.73;58.24;99453.72;5031447;28;20673;-75
2023/09/22 00:18:26;;;;;;;3.78;2.58;;;;;;;19.70;58.10;99456.53;5024301;28;20748;-73
2023/09/22 00:20:54;;;;;;;3.28;2.47;;;;;;;19.65;57.96;99449.88;5031340;28;20219;-75
2023/09/22 00:23:23;;;;;;;4.47;2.55;;;;;;;19.66;58.22;99452.44;5030534;28;20709;-76
2023/09/22 00:25:51;;;;;;;3.75;2.50;;;;;;;19.65;58.17;99458.56;5026108;28;20213;-74
2023/09/22 00:28:19;;;;;;;3.58;2.60;;;;;;;19.64;58.25;99449.03;5036265;28;20513;-75
2023/09/22 00:30:47;;;;;;;3.33;2.70;;;;;;;19.66;58.22;99446.31;5031721;28;20206;-75
2023/09/22 00:33:16;;;;;;;5.32;2.50;;;;;;;19.64;58.20;99446.44;5035601;28;20209;-74
2023/09/22 00:35:45;;;;;;;4.15;2.72;;;;;;;19.63;58.43;99446.53;5024838;28;20319;-74
2023/09/22 00:38:13;;;;;;;3.03;2.50;;;;;;;19.59;58.26;99445.84;5033072;28;20223;-75
2023/09/22 00:40:41;;;;;;;2.88;2.58;;;;;;;19.58;58.28;99445.91;5037169;28;20202;-75
2023/09/22 00:43:10;;;;;;;2.67;2.30;;;;;;;19.56;58.23;99453.84;5037258;28;20285;-73
2023/09/22 00:45:43;;;;;;;2.90;2.30;;;;;;;19.54;58.45;99453.09;5031886;28;20570;-73
2023/09/22 00:48:21;;;;;;;3.38;2.45;;;;;;;19.51;58.45;99445.41;5031210;28;20203;-77
2023/09/22 00:50:50;;;;;;;3.75;2.60;;;;;;;19.47;58.83;99443.91;5026112;28;20198;-74
2023/09/22 00:53:19;;;;;;;2.88;2.65;;;;;;;19.42;59.23;99436.34;5038243;28;20205;-76
2023/09/22 00:55:49;;;;;;;4.15;2.60;;;;;;;19.41;58.98;99439.06;5031164;28;20739;-74
2023/09/22 00:58:17;;;;;;;3.33;2.42;;;;;;;19.38;59.07;99431.41;5034810;28;20211;-73
2023/09/22 01:00:48;;;;;;;3.22;2.78;;;;;;;19.35;59.32;99439.41;5027201;28;20210;-74
2023/09/22 01:03:17;;;;;;;3.20;2.33;;;;;;;19.31;59.35;99434.34;5029694;28;20289;-74
2023/09/22 01:05:47;;;;;;;5.13;3.03;;;;;;;19.28;59.52;99433.69;5028718;28;20206;-74
2023/09/22 01:08:15;;;;;;;3.65;2.40;;;;;;;19.25;59.63;99432.09;5029743;28;20211;-76
2023/09/22 01:10:44;;;;;;;3.78;2.50;;;;;;;19.20;59.91;99431.50;5039495;28;20206;-74
2023/09/22 01:13:12;;;;;;;3.58;2.53;;;;;;;19.16;59.86;99429.16;5030309;28;20215;-74
2023/09/22 01:15:41;;;;;;;5.50;2.50;;;;;;;19.12;59.93;99425.91;5031050;28;20206;-72
2023/09/22 01:18:10;;;;;;;3.60;2.60;;;;;;;19.11;60.07;99424.22;5032858;28;20206;-73
2023/09/22 01:20:43;;;;;;;3.78;2.40;;;;;;;19.10;60.23;99419.91;5032479;28;20673;-73
2023/09/22 01:23:14;;;;;;;4.72;2.45;;;;;;;19.06;60.48;99427.06;5028962;28;20305;-74
2023/09/22 01:25:42;;;;;;;4.30;2.95;;;;;;;19.06;60.40;99431.44;5030506;28;20209;-73
2023/09/22 01:28:11;;;;;;;5.18;3.03;;;;;;;19.04;60.30;99430.72;5028592;28;20233;-76
2023/09/22 01:30:40;;;;;;;3.05;2.30;;;;;;;19.00;60.57;99423.94;5030399;28;20213;-73
2023/09/22 01:33:09;;;;;;;2.38;2.08;;;;;;;19.00;60.61;99429.19;5033966;28;20294;-74
2023/09/22 01:35:38;;;;;;;4.30;2.50;;;;;;;18.99;60.67;99428.34;5029864;28;20684;-75
2023/09/22 01:38:11;;;;;;;4.72;2.45;;;;;;;18.97;60.80;99421.53;5022293;28;20220;-75
2023/09/22 01:40:41;;;;;;;3.05;2.20;;;;;;;18.93;60.90;99423.47;5030702;28;20271;-70
2023/09/22 01:43:10;;;;;;;4.30;2.17;;;;;;;18.91;60.89;99414.03;5033457;28;20206;-70
2023/09/22 01:45:38;;;;;;;3.33;2.50;;;;;;;18.89;61.01;99408.06;5033874;28;20313;-70
2023/09/22 01:48:08;;;;;;;4.20;2.53;;;;;;;18.86;60.96;99411.69;5045711;28;20220;-70
2023/09/22 01:50:37;;;;;;;2.75;2.30;;;;;;;18.85;61.14;99403.94;5040574;28;20625;-69
2023/09/22 01:53:08;;;;;;;3.55;2.47;;;;;;;18.83;61.13;99409.25;5028603;28;20665;-71
2023/09/22 01:55:36;;;;;;;3.75;2.35;;;;;;;18.83;61.22;99410.09;5026353;28;20249;-69
2023/09/22 01:58:07;;;;;;;3.88;2.83;;;;;;;18.82;61.27;99399.75;5030623;28;20295;-68
2023/09/22 02:00:35;;;;;;;3.95;2.50;;;;;;;18.83;61.12;99402.25;5029142;28;20220;-70
2023/09/22 02:03:05;;;;;;;3.38;2.80;;;;;;;18.82;61.45;99405.81;5030674;28;20234;-69
2023/09/22 02:05:34;;;;;;;2.42;2.08;;;;;;;18.80;61.10;99412.03;5034383;28;20206;-71
2023/09/22 02:08:02;;;;;;;5.65;2.80;;;;;;;18.80;61.30;99412.03;5029336;28;20206;-70
2023/09/22 02:10:30;;;;;;;3.72;2.38;;;;;;;18.79;61.49;99399.91;5026916;28;20202;-69
2023/09/22 02:12:58;;;;;;;2.92;2.47;;;;;;;18.78;61.40;99400.84;5029356;28;20638;-70
2023/09/22 02:15:27;;;;;;;4.13;2.28;;;;;;;18.75;61.49;99406.22;5028890;28;20234;-70
2023/09/22 02:17:55;;;;;;;2.88;2.42;;;;;;;18.73;61.29;99400.25;5030437;28;20317;-68
2023/09/22 02:20:24;;;;;;;4.47;2.85;;;;;;;18.73;61.64;99402.84;5037114;28;20563;-70
2023/09/22 02:22:55;;;;;;;2.58;2.13;;;;;;;18.72;61.69;99403.78;5040442;28;20602;-70
2023/09/22 02:25:24;;;;;;;3.90;2.22;;;;;;;18.70;61.50;99400.38;5046175;28;20759;-69
2023/09/22 02:27:56;;;;;;;3.35;2.50;;;;;;;18.67;61.71;99406.63;5031994;28;20214;-70
2023/09/22 02:30:24;;;;;;;4.22;2.40;;;;;;;18.61;61.87;99396.50;5029034;28;20217;-69
2023/09/22 02:32:54;;;;;;;4.38;2.50;;;;;;;18.59;62.11;99398.34;5025851;28;20208;-70
2023/09/22 02:35:23;;;;;;;5.03;2.75;;;;;;;18.55;62.41;99394.22;5036282;28;20213;-70
2023/09/22 02:37:51;;;;;;;3.55;2.42;;;;;;;18.52;62.22;99391.78;5028267;28;20222;-70
2023/09/22 02:40:19;;;;;;;2.75;2.40;;;;;;;18.49;62.44;99391.97;5035034;28;20198;-72
2023/09/22 02:42:48;;;;;;;3.13;2.53;;;;;;;18.45;62.56;99395.69;5032653;28;20743;-71
2023/09/22 02:45:16;;;;;;;3.78;2.65;;;;;;;18.44;63.00;99378.31;5026931;28;20198;-70
2023/09/22 02:47:45;;;;;;;2.95;2.53;;;;;;;18.42;62.71;99385.41;5033238;28;20301;-74
2023/09/22 02:50:18;;;;;;;3.53;2.58;;;;;;;18.42;62.70;99388.00;5035297;28;20209;-72
2023/09/22 02:52:47;;;;;;;2.33;2.13;;;;;;;18.39;62.85;99383.81;5037297;28;20665;-70
2023/09/22 02:55:16;;;;;;;2.53;2.33;;;;;;;18.40;62.94;99397.69;5032607;28;20239;-70
2023/09/22 02:57:45;;;;;;;4.38;2.80;;;;;;;18.40;62.96;99395.91;5032639;28;20260;-70
2023/09/22 03:00:17;;;;;;;3.58;2.38;;;;;;;18.42;62.77;99390.63;5027962;28;20317;-71
2023/09/22 03:02:46;;;;;;;4.75;2.60;;;;;;;18.43;62.71;99389.69;5028820;28;20660;-68
2023/09/22 03:05:16;;;;;;;3.38;2.65;;;;;;;18.40;62.69;99377.66;5034587;28;20595;-69
2023/09/22 03:07:47;;;;;;;4.65;2.33;;;;;;;18.40;63.02;99389.84;5033812;28;20206;-68
2023/09/22 03:10:15;;;;;;;2.97;2.40;;;;;;;18.35;63.08;99383.13;5033266;28;20223;-70
2023/09/22 03:12:44;;;;;;;4.53;2.60;;;;;;;18.34;63.10;99381.44;5033440;28;20217;-72
2023/09/22 03:15:13;;;;;;;3.63;2.55;;;;;;;18.34;63.27;99381.44;5034412;28;20217;-72
2023/09/22 03:17:42;;;;;;;3.97;2.67;;;;;;;18.33;63.06;99374.53;5026334;28;20265;-72
2023/09/22 03:20:13;;;;;;;2.95;2.15;;;;;;;18.29;63.40;99380.84;5027001;28;20680;-71
2023/09/22 03:22:43;;;;;;;3.47;2.45;;;;;;;18.29;63.32;99369.56;5036673;28;20289;-70
2023/09/22 03:25:12;;;;;;;3.42;2.50;;;;;;;18.28;63.41;99376.56;5036940;28;20211;-70
2023/09/22 03:27:40;;;;;;;2.65;2.45;;;;;;;18.26;63.67;99373.19;5033566;28;20230;-72
2023/09/22 03:30:10;;;;;;;3.42;2.28;;;;;;;18.24;63.63;99372.44;5036191;28;20225;-70
2023/09/22 03:32:39;;;;;;;4.55;2.25;;;;;;;18.24;63.80;99372.44;5033050;28;20207;-70
2023/09/22 03:35:09;;;;;;;4.72;2.58;;;;;;;18.21;63.73;99369.97;5026819;28;20198;-70
2023/09/22 03:37:37;;;;;;;4.85;2.40;;;;;;;18.20;63.74;99376.13;5033180;28;20233;-74
2023/09/22 03:40:13;;;;;;;4.28;2.45;;;;;;;18.20;63.89;99375.28;5032439;28;20765;-75
2023/09/22 03:42:43;;;;;;;5.10;2.08;;;;;;;18.17;63.78;99378.91;5028830;28;20680;-73
2023/09/22 03:45:13;;;;;;;7.90;2.63;;;;;;;18.18;63.90;99372.75;5039641;28;20207;-76
2023/09/22 03:47:41;;;;;;;4.90;2.17;;;;;;;18.15;64.18;99370.28;5024578;28;20234;-75
2023/09/22 03:50:10;;;;;;;3.67;2.50;;;;;;;18.17;64.06;99371.06;5034566;28;20597;-73
2023/09/22 03:52:40;;;;;;;3.15;2.53;;;;;;;18.16;64.04;99369.41;5041340;28;20210;-74
2023/09/22 03:55:11;;;;;;;3.25;2.17;;;;;;;18.14;64.04;99375.59;5031085;28;20612;-73
2023/09/22 03:57:40;;;;;;;5.43;2.35;;;;;;;18.13;64.23;99373.94;5029319;28;20706;-75
2023/09/22 04:00:16;;;;;;;4.15;2.35;;;;;;;18.12;64.14;99373.09;5034346;28;20239;-74
2023/09/22 04:02:45;;;;;;;2.50;2.30;;;;;;;18.10;64.29;99372.31;5033153;28;20209;-74
2023/09/22 04:05:13;;;;;;;3.83;2.40;;;;;;;18.04;64.36;99370.03;5034475;28;20272;-73
2023/09/22 04:07:41;;;;;;;2.45;2.08;;;;;;;18.04;64.45;99373.50;5034945;28;20630;-73
2023/09/22 04:10:11;;;;;;;3.50;2.80;;;;;;;18.02;64.41;99372.72;5036077;28;20207;-73
2023/09/22 04:12:39;;;;;;;2.33;2.13;;;;;;;18.06;64.59;99378.63;5034091;28;20206;-76
2023/09/22 04:15:09;;;;;;;4.68;2.80;;;;;;;18.04;64.62;99386.53;5036501;28;20653;-73
2023/09/22 04:17:38;;;;;;;3.20;2.08;;;;;;;18.06;64.63;99383.84;5035845;28;20620;-72
2023/09/22 04:20:09;;;;;;;6.38;2.40;;;;;;;18.07;64.65;99380.31;5033007;28;20218;-72
2023/09/22 04:22:37;;;;;;;4.57;2.35;;;;;;;18.03;64.69;99382.22;5037160;28;20206;-71
2023/09/22 04:25:08;;;;;;;4.25;2.55;;;;;;;17.99;64.81;99385.09;5036843;28;20579;-75
2023/09/22 04:27:43;;;;;;;8.38;2.65;;;;;;;17.97;64.80;99385.19;5030965;28;20242;-73
2023/09/22 04:30:15;;;;;;;3.40;2.78;;;;;;;17.96;65.00;99388.69;5031653;28;20264;-73
2023/09/22 04:32:44;;;;;;;3.55;2.30;;;;;;;17.96;65.17;99380.03;5036928;28;20230;-71
2023/09/22 04:35:13;;;;;;;4.22;2.50;;;;;;;17.95;65.09;99381.78;5033525;28;20248;-74
2023/09/22 04:37:41;;;;;;;6.60;2.33;;;;;;;17.96;65.18;99387.84;5034982;28;20214;-74
2023/09/22 04:40:23;;;;;;;5.47;2.88;;;;;;;17.97;65.11;99386.91;5032375;28;20300;-73
2023/09/22 04:42:53;;;;;;;5.90;2.67;;;;;;;17.98;65.09;99386.84;5033610;28;20265;-75
2023/09/22 04:45:23;;;;;;;3.95;2.92;;;;;;;17.99;64.89;99377.25;5033728;28;20202;-74
2023/09/22 04:47:52;;;;;;;4.30;3.00;;;;;;;17.96;64.94;99380.88;5030136;28;20213;-71
2023/09/22 04:50:21;;;;;;;4.82;2.90;;;;;;;17.98;65.00;99386.00;5034340;28;20233;-70
2023/09/22 04:52:50;;;;;;;3.40;2.53;;;;;;;17.97;65.12;99385.19;5031724;28;20202;-71
2023/09/22 04:55:19;;;;;;;3.88;2.45;;;;;;;17.97;65.03;99374.75;5025757;28;20671;-68
2023/09/22 04:57:48;;;;;;;2.67;2.30;;;;;;;17.99;65.14;99375.50;5032137;28;20260;-68
2023/09/22 05:00:21;;;;;;;8.73;3.47;;;;;;;17.97;65.05;99368.66;5018377;28;20235;-70
2023/09/22 05:02:50;;;;;;;3.25;2.28;;;;;;;17.97;65.09;99374.75;5029867;28;20529;-69
2023/09/22 05:05:19;;;;;;;3.05;2.70;;;;;;;17.96;65.06;99372.19;5030205;28;20576;-70
2023/09/22 05:07:47;;;;;;;3.92;2.65;;;;;;;17.99;65.29;99366.84;5026801;28;20220;-68
2023/09/22 05:10:16;;;;;;;3.60;2.67;;;;;;;17.96;65.26;99356.56;5030989;28;20234;-68
2023/09/22 05:12:44;;;;;;;5.97;2.40;;;;;;;18.00;65.31;99363.28;5028672;28;20577;-68
2023/09/22 05:15:12;;;;;;;2.65;2.33;;;;;;;18.01;65.20;99355.41;5028453;28;20643;-70
2023/09/22 05:17:41;;;;;;;3.88;2.50;;;;;;;18.05;64.96;99354.31;5025307;28;20202;-69
2023/09/22 05:20:14;;;;;;;4.28;2.67;;;;;;;18.08;64.87;99358.53;5026517;28;20635;-68
2023/09/22 05:22:43;;;;;;;6.60;2.97;;;;;;;18.12;64.86;99357.44;5020934;28;20811;-69
2023/09/22 05:25:14;;;;;;;2.67;2.47;;;;;;;18.16;64.81;99368.56;5019465;28;20293;-69
2023/09/22 05:27:51;;;;;;;3.90;2.63;;;;;;;18.17;64.84;99357.19;5031547;28;20571;-70
2023/09/22 05:30:24;;;;;;;4.40;2.50;;;;;;;18.22;64.66;99358.63;5025752;28;20202;-69
2023/09/22 05:32:53;;;;;;;3.17;2.65;;;;;;;18.24;64.56;99361.16;5029546;28;20224;-68
2023/09/22 05:35:21;;;;;;;5.40;2.88;;;;;;;18.26;64.67;99360.16;5030431;28;20301;-70
2023/09/22 05:37:52;;;;;;;3.70;2.85;;;;;;;18.27;64.55;99355.78;5033317;28;20688;-67
2023/09/22 05:40:20;;;;;;;4.07;2.67;;;;;;;18.32;64.15;99358.97;5029510;28;20223;-70
2023/09/22 05:42:48;;;;;;;4.65;2.90;;;;;;;18.35;64.49;99364.03;5032805;28;20665;-67
2023/09/22 05:45:16;;;;;;;4.68;2.47;;;;;;;18.40;64.32;99366.38;5025671;28;20202;-68
2023/09/22 05:47:45;;;;;;;3.60;2.67;;;;;;;18.45;64.38;99364.38;5018504;28;20206;-68
2023/09/22 05:50:14;;;;;;;5.22;2.85;;;;;;;18.51;63.98;99370.06;5029521;28;20576;-68
2023/09/22 05:52:42;;;;;;;5.03;2.90;;;;;;;18.55;63.82;99368.97;5025103;28;20612;-66
2023/09/22 05:55:12;;;;;;;3.72;2.80;;;;;;;18.57;63.82;99364.53;5026063;28;20203;-67
2023/09/22 05:57:40;;;;;;;4.13;2.90;;;;;;;18.62;63.86;99361.66;5029761;28;20654;-68
2023/09/22 06:00:15;;;;;;;4.43;2.88;;;;;;;18.68;63.80;99370.94;5035118;28;20672;-65
2023/09/22 06:02:49;;;;;;;3.30;2.60;;;;;;;18.73;63.75;99359.31;5031878;28;20202;-67
2023/09/22 06:05:22;;;;;;;4.15;2.53;;;;;;;18.76;63.76;99361.75;5024176;28;20688;-66
2023/09/22 06:07:51;;;;;;;3.97;2.78;;;;;;;18.85;64.04;99362.16;5036395;28;20293;-67
2023/09/22 06:10:19;;;;;;;6.30;3.30;;;;;;;18.91;63.55;99361.81;5039577;28;20634;-67
2023/09/22 06:12:47;;;;;;;5.25;2.80;;;;;;;19.01;63.36;99358.59;5034655;28;20289;-67
2023/09/22 06:15:15;;;;;;;4.28;2.80;;;;;;;19.12;63.13;99360.59;5034320;28;20214;-67
2023/09/22 06:17:44;;;;;;;6.35;3.20;;;;;;;19.25;62.98;99364.16;5034315;28;20660;-63
2023/09/22 06:20:15;;;;;;;3.92;3.00;;;;;;;19.38;62.79;99364.31;5041987;28;20214;-71
2023/09/22 06:22:47;;;;;;;4.70;2.95;;;;;;;19.54;62.44;99362.47;5031205;28;20220;-66
2023/09/22 06:25:15;;;;;;;5.93;3.30;;;;;;;19.73;61.66;99366.63;5032061;28;20207;-66
2023/09/22 06:27:44;;;;;;;5.20;3.25;;;;;;;19.90;61.27;99370.84;5030204;28;21867;-67
2023/09/22 06:30:13;;;;;;;6.38;2.88;;;;;;;20.05;61.01;99372.53;5029401;28;20662;-65
2023/09/22 06:32:42;;;;;;;4.30;3.30;;;;;;;20.13;60.52;99365.03;5041296;28;20321;-67
2023/09/22 06:35:11;;;;;;;6.07;3.35;;;;;;;20.16;60.33;99362.22;5044575;28;20237;-67
2023/09/22 06:37:41;;;;;;;4.47;3.08;;;;;;;20.17;60.35;99382.22;5032799;28;20221;-70
2023/09/22 06:40:12;;;;;;;8.13;3.10;;;;;;;20.21;60.72;99368.03;5028197;28;20223;-70
2023/09/22 06:42:44;;;;;;;7.20;3.35;;;;;;;20.20;60.36;99365.50;5027149;28;20589;-69
2023/09/22 06:45:14;;;;;;;3.53;3.00;;;;;;;20.24;60.56;99359.97;5031524;28;20207;-67
2023/09/22 06:47:42;;;;;;;9.63;3.42;;;;;;;20.49;60.65;99369.78;5032686;28;20210;-68
2023/09/22 06:50:11;;;;;;;6.25;2.83;;;;;;;20.70;59.93;99359.72;5031758;28;20205;-69
2023/09/22 06:52:40;;;;;;;7.22;3.05;;;;;;;20.89;59.17;99369.84;5036404;28;20211;-69
2023/09/22 06:55:13;;;;;;;7.65;3.75;;;;;;;21.13;58.59;99363.94;5031820;28;20740;-67
2023/09/22 06:57:42;;;;;;;4.60;3.05;;;;;;;21.50;57.69;99369.38;5028032;28;20741;-68
2023/09/22 07:00:18;;;;;;;5.35;3.00;;;;;;;21.84;56.64;99363.53;5033868;28;20238;-69
2023/09/22 07:02:47;;;;;;;8.45;3.00;;;;;;;22.40;55.23;99369.22;5027980;28;20218;-68
2023/09/22 07:05:16;;;;;;;4.35;3.10;;;;;;;22.90;53.62;99366.50;5033124;28;20202;-70
2023/09/22 07:07:44;;;;;;;6.28;3.20;;;;;;;23.42;52.50;99381.06;5030962;28;20219;-69
2023/09/22 07:10:14;;;;;;;5.43;3.00;;;;;;;24.03;51.20;99381.66;5032131;28;20203;-69
2023/09/22 07:12:42;;;;;;;9.45;3.40;;;;;;;24.70;49.07;99377.28;5030715;28;20214;-71
2023/09/22 07:15:12;;;;;;;4.63;3.47;;;;;;;25.36;47.08;99385.91;5033768;28;20558;-71
2023/09/22 07:17:42;;;;;;;6.22;3.45;;;;;;;26.05;44.92;99373.97;5025654;28;20206;-70
2023/09/22 07:20:13;;;;;;;5.22;3.05;;;;;;;26.45;43.78;99372.16;5033660;28;20215;-69
2023/09/22 07:22:43;;;;;;;5.15;3.55;;;;;;;26.71;42.17;99374.31;5024646;28;20549;-69
2023/09/22 07:25:14;;;;;;;5.22;3.60;;;;;;;26.94;42.55;99373.06;5031039;28;20211;-72
2023/09/22 07:27:45;;;;;;;5.75;3.17;;;;;;;27.28;41.59;99370.03;5024163;28;20198;-66
2023/09/22 07:30:14;;;;;;;7.07;3.45;;;;;;;27.73;40.42;99360.59;5032867;28;20206;-68
2023/09/22 07:32:43;;;;;;;6.60;2.95;;;;;;;28.20;40.03;99358.75;5030530;28;20297;-68
2023/09/22 07:35:11;;;;;;;4.38;3.22;;;;;;;28.29;39.20;99371.13;5031553;28;20206;-69
2023/09/22 07:37:39;;;;;;;8.45;4.28;;;;;;;28.41;39.11;99364.69;5032454;28;20249;-70
2023/09/22 07:40:10;;;;;;;4.07;3.05;;;;;;;28.27;39.42;99369.59;5032939;28;20225;-69
2023/09/22 07:42:41;;;;;;;5.03;3.47;;;;;;;28.01;39.53;99377.41;5030042;28;20206;-68
2023/09/22 07:45:11;;;;;;;4.30;3.25;;;;;;;27.84;40.22;99374.53;5032669;28;20230;-69
2023/09/22 07:47:40;;;;;;;5.28;2.95;;;;;;;27.81;40.40;99374.00;5031439;28;20199;-69
2023/09/22 07:50:10;;;;;;;7.18;3.75;;;;;;;27.83;40.58;99375.50;5031914;28;20206;-70
2023/09/22 07:52:39;;;;;;;6.60;3.17;;;;;;;27.97;40.44;99383.97;5031287;28;20653;-71
2023/09/22 07:55:07;;;;;;;7.40;3.00;;;;;;;28.22;40.17;99382.47;5031435;28;20264;-72
2023/09/22 07:57:36;;;;;;;6.88;3.53;;;;;;;28.28;39.41;99372.13;5033140;28;20642;-72
2023/09/22 08:00:10;;;;;;;4.85;2.88;;;;;;;28.46;39.49;99371.34;5034012;28;20230;-70
2023/09/22 08:02:38;;;;;;;4.65;3.20;;;;;;;28.83;38.70;99365.91;5028985;28;20203;-70
2023/09/22 08:05:07;;;;;;;8.13;4.05;;;;;;;29.06;38.50;99363.69;5032325;28;20294;-71
2023/09/22 08:07:35;;;;;;;8.02;3.72;;;;;;;29.17;37.46;99362.63;5032722;28;20214;-69
2023/09/22 08:10:05;;;;;;;6.07;3.40;;;;;;;29.30;37.73;99361.22;5033624;28;20210;-71
2023/09/22 08:12:34;;;;;;;9.52;3.47;;;;;;;29.44;36.93;99353.69;5032082;28;20846;-70
2023/09/22 08:15:03;;;;;;;5.57;3.03;;;;;;;29.58;36.92;99355.81;5029733;28;20283;-69
2023/09/22 08:17:32;;;;;;;4.20;3.20;;;;;;;29.48;36.98;99349.75;5027544;28;20200;-69
2023/09/22 08:20:00;;;;;;;5.55;3.30;;;;;;;29.18;37.09;99349.19;5031435;28;20286;-69
2023/09/22 08:22:28;;;;;;;13.00;3.78;;;;;;;28.85;38.59;99334.78;5031078;28;20210;-70
2023/09/22 08:24:56;;;;;;;7.20;3.67;;;;;;;28.56;38.93;99348.28;5023752;28;20681;-69
2023/09/22 08:27:25;;;;;;;6.38;3.53;;;;;;;28.27;39.78;99345.75;5031120;28;20195;-69
2023/09/22 08:29:53;;;;;;;8.65;3.45;;;;;;;27.99;40.47;99352.91;5026843;28;20238;-71
2023/09/22 08:32:22;;;;;;;5.78;3.28;;;;;;;27.85;41.10;99356.84;5030951;28;20202;-70
2023/09/22 08:34:51;;;;;;;4.95;3.25;;;;;;;27.72;41.40;99351.00;5033220;28;20233;-70
2023/09/22 08:37:19;;;;;;;6.18;3.53;;;;;;;27.70;41.57;99359.91;5031776;28;20228;-69
2023/09/22 08:39:47;;;;;;;10.25;3.72;;;;;;;27.72;41.71;99373.00;5032890;28;20225;-70
2023/09/22 08:42:16;;;;;;;7.78;3.63;;;;;;;27.70;42.04;99375.81;5032983;28;20237;-71
2023/09/22 08:44:44;;;;;;;7.45;3.80;;;;;;;27.68;41.97;99384.84;5019004;28;20293;-72
2023/09/22 08:47:12;;;;;;;6.75;3.40;;;;;;;27.58;41.84;99386.69;5030961;28;20583;-72
2023/09/22 08:49:40;;;;;;;7.18;3.92;;;;;;;27.57;42.55;99395.63;5044287;28;20241;-72
2023/09/22 08:52:10;;;;;;;10.35;3.97;;;;;;;27.52;41.90;99381.97;5030964;28;20289;-74
2023/09/22 08:54:39;;;;;;;6.40;3.95;;;;;;;27.45;42.37;99374.59;5033248;28;20298;-73
2023/09/22 08:57:12;;;;;;;5.63;3.58;;;;;;;27.40;42.40;99383.97;5032739;28;20612;-72
2023/09/22 08:59:41;;;;;;;8.88;3.95;;;;;;;27.26;42.59;99373.81;5030903;28;20243;-73
2023/09/22 09:02:11;;;;;;;4.95;3.80;;;;;;;27.14;43.20;99367.84;5030374;28;20598;-72
2023/09/22 09:04:40;;;;;;;6.10;3.85;;;;;;;27.06;43.53;99362.34;5032952;28;20213;-73
2023/09/22 09:07:09;;;;;;;10.93;4.05;;;;;;;27.06;43.49;99355.25;5033259;28;20242;-72
2023/09/22 09:09:43;;;;;;;9.20;3.78;;;;;;;27.00;43.89;99339.97;5032702;28;20202;-72
2023/09/22 09:12:13;;;;;;;6.90;3.75;;;;;;;27.07;43.57;99345.53;5027459;28;20325;-73
2023/09/22 09:14:43;;;;;;;7.32;3.53;;;;;;;27.17;43.28;99343.72;5031610;28;20198;-71
2023/09/22 09:17:19;;;;;;;6.68;3.60;;;;;;;27.29;43.38;99339.13;5034475;28;20261;-72
2023/09/22 09:19:48;;;;;;;9.60;3.92;;;;;;;27.39;43.10;99324.88;5031546;28;20245;-73
2023/09/22 09:22:18;;;;;;;5.07;3.88;;;;;;;27.41;42.83;99317.66;5031002;28;20210;-72
2023/09/22 09:24:46;;;;;;;10.82;4.05;;;;;;;27.43;42.39;99315.72;5032148;28;20202;-73
2023/09/22 09:27:19;;;;;;;5.65;4.05;;;;;;;27.46;42.85;99303.97;5031689;28;20272;-72
2023/09/22 09:29:47;;;;;;;7.82;4.00;;;;;;;27.39;42.25;99297.59;5030896;28;20297;-66
2023/09/22 09:32:26;;;;;;;6.47;3.75;;;;;;;27.30;42.78;99291.38;5029743;28;20559;-66
2023/09/22 09:34:55;;;;;;;6.78;4.10;;;;;;;27.25;42.74;99301.56;5028777;28;20206;-66
2023/09/22 09:37:26;;;;;;;8.20;4.07;;;;;;;27.25;43.01;99308.63;5028269;28;20346;-66
2023/09/22 09:39:56;;;;;;;9.07;4.43;;;;;;;27.30;43.22;99309.06;5028167;28;20207;-68
2023/09/22 09:42:26;;;;;;;7.35;4.00;;;;;;;27.37;43.03;99313.63;5027961;28;20294;-68
2023/09/22 09:44:56;;;;;;;9.85;4.50;;;;;;;27.44;42.94;99309.44;5031111;28;20211;-68
2023/09/22 09:47:25;;;;;;;7.50;4.30;;;;;;;27.47;42.37;99316.25;5030917;28;20237;-67
2023/09/22 09:49:59;;;;;;;6.85;4.00;;;;;;;27.38;42.35;99304.72;5031972;28;20202;-70
2023/09/22 09:52:37;;;;;;;6.13;3.75;;;;;;;27.44;42.70;99306.78;5032382;28;20207;-68
2023/09/22 09:55:09;;;;;;;6.72;3.80;;;;;;;27.55;42.50;99304.97;5021852;28;20210;-71
2023/09/22 09:57:39;;;;;;;8.77;3.85;;;;;;;27.56;41.71;99299.50;5033674;28;20238;-69
2023/09/22 10:00:12;;;;;;;7.40;3.95;;;;;;;27.48;42.19;99301.22;5030063;28;20246;-72
2023/09/22 10:02:43;;;;;;;7.00;3.83;;;;;;;27.52;42.56;99314.00;5030924;28;20620;-67
2023/09/22 10:05:15;;;;;;;7.70;3.47;;;;;;;27.55;41.94;99302.31;5023962;28;20672;-69
2023/09/22 10:07:49;;;;;;;9.18;3.80;;;;;;;27.59;42.18;99301.88;5033564;28;20212;-69
2023/09/22 10:10:19;;;;;;;8.75;3.60;;;;;;;27.66;41.67;99304.78;5022285;28;20575;-68
2023/09/22 10:12:47;;;;;;;8.18;3.63;;;;;;;27.66;40.84;99312.72;5025759;28;20206;-70
2023/09/22 10:15:16;;;;;;;6.60;3.42;;;;;;;27.59;41.14;99296.56;5038070;28;20210;-69
2023/09/22 10:17:54;;;;;;;5.80;3.15;;;;;;;27.48;41.09;99302.03;5024096;28;20290;-68
2023/09/22 10:20:44;;;;;;;6.18;3.42;;;;;;;27.37;41.65;99310.97;5028362;28;20242;-71
2023/09/22 10:23:18;;;;;;;6.63;3.25;;;;;;;27.29;41.85;99312.69;5029552;28;20218;-68
2023/09/22 10:26:15;;;;;;;12.55;3.90;;;;;;;27.27;42.59;99304.88;5036160;28;20274;-70
2023/09/22 10:28:44;;;;;;;7.47;3.40;;;;;;;27.26;42.35;99300.56;5023226;28;20207;-70
2023/09/22 10:31:12;;;;;;;5.75;3.92;;;;;;;27.16;42.39;99310.31;5027946;28;20546;-69
2023/09/22 10:33:42;;;;;;;9.13;3.95;;;;;;;27.16;42.53;99308.50;5030215;28;20571;-67
2023/09/22 10:36:14;;;;;;;11.02;3.88;;;;;;;27.16;42.52;99297.09;5029940;28;20199;-69
2023/09/22 10:38:58;;;;;;;9.07;3.67;;;;;;;27.20;42.59;99296.66;5028752;28;20215;-72
2023/09/22 10:41:26;;;;;;;5.60;3.90;;;;;;;27.28;42.48;99288.00;5023605;28;20202;-73
2023/09/22 10:43:59;;;;;;;5.28;3.38;;;;;;;27.27;42.37;99288.19;5038372;28;20285;-75
2023/09/22 10:46:27;;;;;;;8.23;4.18;;;;;;;27.17;42.61;99281.09;5034445;28;20199;-74
2023/09/22 10:48:55;;;;;;;8.60;3.75;;;;;;;27.06;42.85;99298.88;5032547;28;20202;-74
2023/09/22 10:51:42;;;;;;;14.75;3.95;;;;;;;27.06;42.77;99301.53;5030170;28;20202;-72
2023/09/22 10:54:12;;;;;;;8.32;4.00;;;;;;;27.03;42.69;99302.66;5035605;28;20202;-74
2023/09/22 10:56:40;;;;;;;5.63;4.20;;;;;;;27.05;43.01;99298.06;5024416;28;20213;-72
2023/09/22 10:59:10;;;;;;;10.90;4.20;;;;;;;27.07;43.18;99304.06;5025386;28;20683;-74
2023/09/22 11:01:45;;;;;;;5.47;3.55;;;;;;;27.06;43.07;99302.38;5017067;28;20231;-72
2023/09/22 11:04:17;;;;;;;6.65;3.72;;;;;;;26.93;43.38;99297.38;5034188;28;20218;-72
2023/09/22 11:06:46;;;;;;;6.88;3.92;;;;;;;26.68;43.58;99298.78;5038156;28;20230;-71
2023/09/22 11:09:16;;;;;;;10.65;4.00;;;;;;;26.36;44.38;99301.63;5025786;28;20229;-71
2023/09/22 11:11:46;;;;;;;6.82;3.75;;;;;;;26.16;45.25;99307.84;5031462;28;20225;-72
2023/09/22 11:14:20;;;;;;;8.45;3.75;;;;;;;25.96;45.98;99306.97;5031164;28;20199;-72
2023/09/22 11:16:49;;;;;;;7.78;4.50;;;;;;;25.82;45.81;99310.81;5031109;28;20210;-72
2023/09/22 11:19:18;;;;;;;6.40;4.38;;;;;;;25.82;46.34;99300.25;5030166;28;20207;-69
2023/09/22 11:21:47;;;;;;;7.47;4.22;;;;;;;26.00;46.12;99292.53;5028272;28;20658;-68
2023/09/22 11:24:17;;;;;;;7.97;3.78;;;;;;;26.21;45.99;99295.06;5030744;28;20207;-67
2023/09/22 11:26:45;;;;;;;11.77;4.15;;;;;;;26.46;45.29;99277.91;5031956;28;20256;-69
2023/09/22 11:29:16;;;;;;;9.38;3.83;;;;;;;26.61;44.71;99273.03;5022060;28;20205;-66
2023/09/22 11:31:49;;;;;;;7.45;4.10;;;;;;;26.77;44.40;99280.41;5038098;28;20673;-68
2023/09/22 11:34:20;;;;;;;7.35;4.38;;;;;;;26.88;44.12;99283.75;5031968;28;20198;-68
2023/09/22 11:36:49;;;;;;;6.88;4.03;;;;;;;26.97;44.01;99282.06;5032880;28;20206;-68
2023/09/22 11:39:29;;;;;;;6.40;3.80;;;;;;;27.07;43.59;99282.91;5024850;28;20202;-68
2023/09/22 11:41:59;;;;;;;7.88;4.28;;;;;;;27.22;43.51;99285.97;5021261;28;20230;-70
2023/09/22 11:44:27;;;;;;;9.20;4.55;;;;;;;27.29;43.19;99286.22;5030915;28;20202;-68
2023/09/22 11:46:55;;;;;;;6.15;3.70;;;;;;;27.34;42.74;99279.53;5032411;28;20210;-68